Cosco Nagoya — 3ESJ8 — position and weather

sailwx.info

Track history (hours):
 
Tides and Currents Weather Stations Pressure Air Temp Water Temp Dewpoint Dewpoint Depression Visibility Wind Speed Wind Dir Waves Ship Positions

Cosco Nagoya

Last reported at 2016-Jun-25 12:24 UTC. Time now 2016-Jul-24 16:40 UTC.
Position N 03°58' E 099°52'.
Warning: this ship's position is 29 days out of date.

Length 260 m; draft 11.6 m.

Type: Cargo ship. MMSI: 370320000.

Date/timePositionNaut miles runAvg speedWind from/ knotsBaromVisibWave heightAir tempDewpointWater temp
2016-Jun-25 12:24N 03°58' E 099°52'137 2.7
2016-Jun-23 09:29N 02°29' E 101°36'5614.3
2016-Jun-23 05:33N 01°55' E 102°21'1414.1
2016-Jun-23 04:33N 01°49' E 102°34'1413.3
2016-Jun-23 03:32N 01°43' E 102°46'6013.8
2016-Jun-22 23:11N 01°11' E 103°37'610.0
2016-Jun-22 22:33N 01°15' E 103°43'5 4.4
2016-Jun-22 21:31N 01°16' E 103°47'0 0.0
2016-Jun-22 20:31N 01°16' E 103°47'0 0.0
2016-Jun-22 19:31N 01°16' E 103°47'0 0.0
2016-Jun-22 18:19N 01°16' E 103°47'0 0.0
2016-Jun-22 17:31N 01°16' E 103°47'0 0.0
2016-Jun-22 16:31N 01°16' E 103°47'0 0.0
2016-Jun-22 15:25N 01°16' E 103°47'0 0.0
2016-Jun-22 14:19N 01°16' E 103°47'0 0.0
2016-Jun-22 13:31N 01°16' E 103°47'0 0.0
2016-Jun-22 12:31N 01°16' E 103°47'0 0.0
2016-Jun-22 11:31N 01°16' E 103°47'0 0.0
2016-Jun-22 10:25N 01°16' E 103°47'0 0.2
2016-Jun-22 09:33N 01°16' E 103°47'3 3.3
2016-Jun-22 08:33N 01°13' E 103°48'9 8.9
2016-Jun-22 07:33N 01°15' E 103°57'1110.0
2016-Jun-22 06:30N 01°16' E 104°07'  
2016-Jun-18 10:33N 22°14' E 113°49'1313.4
2016-Jun-18 09:33N 22°27' E 113°45'6 0.6
2016-Jun-17 23:23N 22°22' E 113°47'1113.8
2016-Jun-17 22:33N 22°11' E 113°50'16 3.2
2016-Jun-17 17:34N 22°16' E 114°06'3 3.2
2016-Jun-17 16:33N 22°19' E 114°07'0 0.0
2016-Jun-17 15:23N 22°19' E 114°07'0 0.0
2016-Jun-17 14:32N 22°19' E 114°07'0 0.0
2016-Jun-17 13:26N 22°19' E 114°07'0 0.0
2016-Jun-17 12:29N 22°19' E 114°07'0 0.1
2016-Jun-17 11:32N 22°19' E 114°07'0 0.1
2016-Jun-17 10:32N 22°19' E 114°07'0 0.0
2016-Jun-17 09:32N 22°19' E 114°07'3 2.9
2016-Jun-17 08:33N 22°17' E 114°06'10 9.5
2016-Jun-17 07:32N 22°09' E 114°13'1111.0
2016-Jun-17 06:33N 22°08' E 114°25'1211.3
2016-Jun-17 05:30N 22°07' E 114°38'23417.7
2016-Jun-16 16:15N 23°43' E 118°30'1419.6
2016-Jun-16 15:31N 23°53' E 118°42'9619.0
2016-Jun-16 10:27N 25°02' E 119°55'28918.1
2016-Jun-15 18:27N 29°16' E 122°30'2219.0
2016-Jun-15 17:18N 29°37' E 122°29'1317.1
2016-Jun-15 16:33N 29°46' E 122°18'1313.5
2016-Jun-15 15:34N 29°55' E 122°07'1413.9
2016-Jun-15 14:33N 29°57' E 121°51'1 1.1
2016-Jun-15 13:33N 29°57' E 121°50'  
Track history (hours):
 
Tides and Currents Weather Stations Pressure Air Temp Water Temp Dewpoint Dewpoint Depression Visibility Wind Speed Wind Dir Waves Ship Positions

Cosco Nagoya

Last reported at 2016-Jun-25 12:24 UTC. Time now 2016-Jul-24 16:40 UTC.
Position N 03°58' E 099°52'.
Warning: this ship's position is 29 days out of date.

Length 260 m; draft 11.6 m.

Type: Cargo ship. MMSI: 370320000.

Date/timePositionNaut miles runAvg speedWind from/ knotsBaromVisibWave heightAir tempDewpointWater temp
2016-Jun-25 12:24N 03°58' E 099°52'137 2.7
2016-Jun-23 09:29N 02°29' E 101°36'5614.3
2016-Jun-23 05:33N 01°55' E 102°21'1414.1
2016-Jun-23 04:33N 01°49' E 102°34'1413.3
2016-Jun-23 03:32N 01°43' E 102°46'6013.8
2016-Jun-22 23:11N 01°11' E 103°37'610.0
2016-Jun-22 22:33N 01°15' E 103°43'5 4.4
2016-Jun-22 21:31N 01°16' E 103°47'0 0.0
2016-Jun-22 20:31N 01°16' E 103°47'0 0.0
2016-Jun-22 19:31N 01°16' E 103°47'0 0.0
2016-Jun-22 18:19N 01°16' E 103°47'0 0.0
2016-Jun-22 17:31N 01°16' E 103°47'0 0.0
2016-Jun-22 16:31N 01°16' E 103°47'0 0.0
2016-Jun-22 15:25N 01°16' E 103°47'0 0.0
2016-Jun-22 14:19N 01°16' E 103°47'0 0.0
2016-Jun-22 13:31N 01°16' E 103°47'0 0.0
2016-Jun-22 12:31N 01°16' E 103°47'0 0.0
2016-Jun-22 11:31N 01°16' E 103°47'0 0.0
2016-Jun-22 10:25N 01°16' E 103°47'0 0.2
2016-Jun-22 09:33N 01°16' E 103°47'3 3.3
2016-Jun-22 08:33N 01°13' E 103°48'9 8.9
2016-Jun-22 07:33N 01°15' E 103°57'1110.0
2016-Jun-22 06:30N 01°16' E 104°07'  
2016-Jun-18 10:33N 22°14' E 113°49'1313.4
2016-Jun-18 09:33N 22°27' E 113°45'6 0.6
2016-Jun-17 23:23N 22°22' E 113°47'1113.8
2016-Jun-17 22:33N 22°11' E 113°50'16 3.2
2016-Jun-17 17:34N 22°16' E 114°06'3 3.2
2016-Jun-17 16:33N 22°19' E 114°07'0 0.0
2016-Jun-17 15:23N 22°19' E 114°07'0 0.0
2016-Jun-17 14:32N 22°19' E 114°07'0 0.0
2016-Jun-17 13:26N 22°19' E 114°07'0 0.0
2016-Jun-17 12:29N 22°19' E 114°07'0 0.1
2016-Jun-17 11:32N 22°19' E 114°07'0 0.1
2016-Jun-17 10:32N 22°19' E 114°07'0 0.0
2016-Jun-17 09:32N 22°19' E 114°07'3 2.9
2016-Jun-17 08:33N 22°17' E 114°06'10 9.5
2016-Jun-17 07:32N 22°09' E 114°13'1111.0
2016-Jun-17 06:33N 22°08' E 114°25'1211.3
2016-Jun-17 05:30N 22°07' E 114°38'23417.7
2016-Jun-16 16:15N 23°43' E 118°30'1419.6
2016-Jun-16 15:31N 23°53' E 118°42'9619.0
2016-Jun-16 10:27N 25°02' E 119°55'28918.1
2016-Jun-15 18:27N 29°16' E 122°30'2219.0
2016-Jun-15 17:18N 29°37' E 122°29'1317.1
2016-Jun-15 16:33N 29°46' E 122°18'1313.5
2016-Jun-15 15:34N 29°55' E 122°07'1413.9
2016-Jun-15 14:33N 29°57' E 121°51'1 1.1
2016-Jun-15 13:33N 29°57' E 121°50'  

Dump ship's entire track history